createdAt,value
2023-07-23T00:06:11.585Z,48.84
2023-07-23T00:16:15.929Z,49.05
2023-07-23T00:26:18.885Z,49.56
2023-07-23T00:36:23.075Z,49.71
2023-07-23T00:46:26.289Z,50.54
2023-07-23T00:56:31.517Z,50.76
2023-07-23T01:06:35.980Z,51.90
2023-07-23T01:16:40.830Z,51.70
2023-07-23T01:26:45.243Z,52.56
2023-07-23T01:36:49.117Z,52.04
2023-07-23T01:46:53.462Z,52.26
2023-07-23T01:56:57.789Z,52.58
2023-07-23T02:07:02.223Z,52.43
2023-07-23T02:17:06.320Z,52.73
2023-07-23T02:27:11.162Z,52.51
2023-07-23T02:37:14.465Z,52.53
2023-07-23T02:47:18.762Z,52.85
2023-07-23T02:57:21.856Z,52.40
2023-07-23T03:07:26.351Z,52.04
2023-07-23T03:17:29.418Z,51.96
2023-07-23T03:27:33.904Z,52.15
2023-07-23T03:37:37.458Z,52.57
2023-07-23T03:47:41.953Z,53.00
2023-07-23T03:57:45.100Z,53.44
2023-07-23T04:07:49.599Z,53.20
2023-07-23T04:17:52.779Z,53.48
2023-07-23T04:27:57.275Z,54.20
2023-07-23T04:38:00.382Z,53.98
2023-07-23T04:48:04.925Z,54.83
2023-07-23T04:58:07.981Z,53.93
2023-07-23T05:08:12.557Z,54.67
2023-07-23T05:18:15.596Z,54.72
2023-07-23T05:28:19.895Z,54.63
2023-07-23T05:38:22.946Z,55.49
2023-07-23T05:48:27.541Z,55.60
2023-07-23T05:58:31.783Z,56.48
2023-07-23T06:08:36.390Z,55.76
2023-07-23T06:18:39.458Z,55.57
2023-07-23T06:28:43.869Z,54.21
2023-07-23T06:38:47.693Z,52.85
2023-07-23T06:48:52.247Z,53.18
2023-07-23T06:58:55.382Z,53.90
2023-07-23T07:08:59.805Z,53.61
2023-07-23T07:19:02.960Z,58.73
2023-07-23T07:29:07.464Z,71.55
2023-07-23T07:39:10.824Z,75.89
2023-07-23T07:49:15.182Z,80.51
2023-07-23T07:59:18.949Z,80.89
2023-07-23T08:09:26.040Z,81.82
2023-07-23T08:19:30.063Z,83.91
2023-07-23T08:29:39.487Z,82.06
2023-07-23T08:39:43.729Z,77.93
2023-07-23T08:49:49.207Z,83.58
2023-07-23T08:59:53.048Z,87.24
2023-07-23T09:09:59.618Z,89.70
2023-07-23T09:20:02.718Z,90.25
2023-07-23T09:30:08.236Z,91.69
2023-07-23T09:40:12.704Z,93.27
2023-07-23T09:50:18.963Z,93.91
2023-07-23T10:00:22.805Z,90.37
2023-07-23T10:10:27.468Z,82.85
2023-07-23T10:20:33.608Z,85.57
2023-07-23T10:30:39.094Z,91.02
2023-07-23T10:40:49.343Z,98.22
2023-07-23T10:51:09.094Z,95.76
2023-07-23T11:01:14.096Z,95.56
2023-07-23T11:11:19.765Z,92.40
2023-07-23T11:21:22.677Z,87.75
2023-07-23T11:31:27.364Z,80.34
2023-07-23T11:41:38.521Z,78.80
2023-07-23T11:51:43.658Z,77.13
2023-07-23T12:01:47.467Z,75.50
2023-07-23T12:11:52.833Z,73.83
2023-07-23T12:21:59.084Z,72.01
2023-07-23T12:32:14.300Z,71.45
2023-07-23T12:42:17.405Z,71.74
2023-07-23T12:52:22.470Z,70.39
2023-07-23T13:02:25.746Z,71.76
2023-07-23T13:12:29.945Z,71.67
2023-07-23T13:22:33.598Z,68.50
2023-07-23T13:32:37.810Z,63.84
2023-07-23T13:42:41.013Z,63.98
2023-07-23T13:52:45.762Z,65.38
2023-07-23T14:02:48.936Z,66.06
2023-07-23T14:12:55.532Z,67.18
2023-07-23T14:22:58.355Z,67.74
2023-07-23T14:33:02.665Z,68.34
2023-07-23T14:43:05.835Z,68.68
2023-07-23T14:53:10.791Z,68.00
2023-07-23T15:03:17.308Z,71.05
2023-07-23T15:13:22.456Z,78.37
2023-07-23T15:23:26.108Z,83.37
2023-07-23T15:33:30.853Z,81.35
2023-07-23T15:43:37.442Z,77.99
2023-07-23T15:53:41.793Z,76.86
2023-07-23T16:03:44.939Z,74.34
2023-07-23T16:13:49.707Z,74.03
2023-07-23T16:23:52.926Z,73.04
2023-07-23T16:33:57.878Z,72.93
2023-07-23T16:44:03.572Z,73.44
2023-07-23T16:54:08.586Z,73.92
2023-07-23T17:04:11.704Z,74.15
2023-07-23T17:14:16.129Z,73.70
2023-07-23T17:24:19.503Z,73.54
2023-07-23T17:34:23.801Z,72.97
2023-07-23T17:44:26.970Z,73.34
2023-07-23T17:54:31.813Z,80.58
2023-07-23T18:04:34.925Z,81.68
2023-07-23T18:14:39.706Z,82.50
2023-07-23T18:24:44.049Z,84.14
2023-07-23T18:34:48.545Z,87.42
2023-07-23T18:44:51.798Z,93.05
2023-07-23T18:54:56.246Z,94.53
2023-07-23T19:04:59.737Z,94.83
2023-07-23T19:15:04.667Z,94.99
2023-07-23T19:25:08.249Z,96.44
2023-07-23T19:35:12.714Z,98.88
2023-07-23T19:45:17.312Z,100.00
2023-07-23T19:55:22.125Z,100.00
2023-07-23T20:05:25.160Z,100.00
2023-07-23T20:15:29.677Z,100.00
2023-07-23T20:25:33.064Z,100.00
2023-07-23T20:35:38.926Z,100.00
2023-07-23T20:45:42.008Z,100.00
2023-07-23T20:55:46.506Z,100.00
2023-07-23T21:05:49.658Z,100.00
2023-07-23T21:15:56.262Z,100.00
2023-07-23T21:25:59.428Z,100.00
2023-07-23T21:36:03.847Z,100.00
2023-07-23T21:46:06.935Z,100.00
2023-07-23T21:56:11.222Z,100.00
2023-07-23T22:06:14.481Z,100.00
2023-07-23T22:16:18.955Z,100.00
2023-07-23T22:26:22.523Z,100.00
2023-07-23T22:36:28.746Z,100.00
2023-07-23T22:46:33.269Z,100.00
2023-07-23T22:56:38.719Z,100.00
2023-07-23T23:06:42.105Z,100.00
2023-07-23T23:16:46.693Z,100.00
2023-07-23T23:26:49.592Z,100.00
2023-07-23T23:36:53.997Z,100.00
2023-07-23T23:46:57.050Z,100.00
2023-07-23T23:57:02.763Z,100.00
